• Join FlightAware (Why Join?)
  • Login
  • US Flag 
01:36AM EDT


 

Airport Tracker/Info


-or-


 

Live Flight TrackerFlight Track Log ✈ AWI3772 ✈ 20-Apr-2012 ✈ KPHL - KITH

Flight Track Log - Related Links

Times and Time Zones

All times are in EDT time to prevent confusion due to time zone crossing. See the AWI3772 flight status page for this flight to view local times or setup timezone preferences in your user account.

Time Position Orientation Groundspeed Altitude Reporting Facility
EDT Latitude Longitude Course Direction KTS MPH feet Rate Location/Type
12:17PM 39.8947 -75.2507 230° Southwest  Level FlightAware Approximate
12:18PM 39.9706 -75.3206 177° South  Level FlightAware Approximate
12:19PM 39.8550 -75.3133 261° West 169 194 2,100  Level FAA TRACON SMA TRACON (SMA)
12:19PM 39.8486 -75.3661 309° West 217 250 4,000 2,280 Climbing FAA TRACON SMA TRACON (SMA)
12:20PM 39.8742 -75.4072 359° North 288 331 5,200 2,460 Climbing FAA TRACON SMA TRACON (SMA)
12:21PM 39.9286 -75.4089 355° North 285 328 7,300 3,060 Climbing FAA TRACON SMA TRACON (SMA)
12:21PM 39.9842 -75.4158 349° North 299 344 9,300 2,400 Climbing FAA TRACON SMA TRACON (SMA)
12:22PM 40.0356 -75.4283 331° Northwest 313 360 10,500 2,280 Climbing FAA TRACON SMA TRACON (SMA)
12:23PM 40.0867 -75.4650 332° Northwest 310 357 12,400 1,920 Climbing FAA TRACON SMA TRACON (SMA)
12:23PM 40.1419 -75.5039 332° Northwest 331 381 13,100 420 Climbing FAA TRACON SMA TRACON (SMA)
12:24PM 40.1975 -75.5433 327° Northwest 370 426 13,000 720 Descending FAA TRACON SMA TRACON (SMA)
12:25PM 40.2572 -75.5939 345° North 376 433 14,100 1,920 Climbing FAA TRACON SMA TRACON (SMA)
12:25PM 40.3267 -75.6181 344° North 372 428 15,600 1,380 Climbing FAA TRACON SMA TRACON (SMA)
12:26PM 40.3883 -75.6408 344° North 373 429 16,000 300 Climbing FAA TRACON SMA TRACON (SMA)
12:27PM 40.4311 -75.6567 344° North 375 432 16,000  Level FAA TRACON SMA TRACON (SMA)
12:28PM 40.5647 -75.7075 344° North 375 432 16,000  Level New York Center
12:29PM 40.6692 -75.7481 332° Northwest 380 437 16,000  Level New York Center
12:30PM 40.7622 -75.8122 324° Northwest 380 437 16,000  Level New York Center
12:31PM 40.8403 -75.8867 339° North 380 437 16,000  Level New York Center
12:32PM 40.9403 -75.9381 348° North 380 437 16,000 -60 Level New York Center
12:33PM 41.0556 -75.9717 345° North 380 437 15,900  Descending New York Center
12:34PM 41.1581 -76.0069 344° North 380 437 16,000  Climbing New York Center
12:35PM 41.2625 -76.0456 347° North 385 443 16,000  Level New York Center
12:36PM 41.3572 -76.0750 346° North 385 443 16,000  Level New York Center
12:37PM 41.4578 -76.1078 346° North 385 443 16,000  Level New York Center
12:38PM 41.5747 -76.1478 346° North 390 449 16,000 -60 Level New York Center
12:39PM 41.6792 -76.1839 345° North 390 449 15,900 -840 Descending New York Center
12:40PM 41.7817 -76.2200 346° North 390 449 14,400 -1,560 Descending New York Center
12:41PM 41.8719 -76.2497 345° North 385 443 12,800 -1,740 Descending New York Center
12:42PM 41.9661 -76.2825 345° North 364 419 10,900 -1,500 Descending New York Center
12:43PM 42.0606 -76.3156 346° North 331 381 9,800 -1,320 Descending New York Center
12:44PM 42.1383 -76.3417 346° North 308 354 8,400 -1,440 Descending New York Center
12:45PM 42.2161 -76.3678 346° North 290 334 7,000 -1,380 Descending New York Center
12:46PM 42.2919 -76.3939 347° North 279 321 5,600 -1,440 Descending New York Center
12:47PM 42.3678 -76.4172 345° North 279 321 4,200 -1,200 Descending New York Center
12:48PM 42.4375 -76.4431 345° North 272 313 3,300 -900 Descending New York Center